sensor_id;sensor_type;location;lat;lon;timestamp;P1;durP1;ratioP1;P2;durP2;ratioP2
14205;SDS011;7186;48.800;9.216;2023-02-14T00:00:32;29.17;;;15.10;;
14205;SDS011;7186;48.800;9.216;2023-02-14T00:02:58;30.30;;;14.87;;
14205;SDS011;7186;48.800;9.216;2023-02-14T00:05:23;26.27;;;14.80;;
14205;SDS011;7186;48.800;9.216;2023-02-14T00:07:49;26.93;;;13.63;;
14205;SDS011;7186;48.800;9.216;2023-02-14T00:10:14;29.17;;;14.77;;
14205;SDS011;7186;48.800;9.216;2023-02-14T00:12:39;30.47;;;14.53;;
14205;SDS011;7186;48.800;9.216;2023-02-14T00:15:05;31.50;;;15.07;;
14205;SDS011;7186;48.800;9.216;2023-02-14T00:17:53;28.40;;;14.93;;
14205;SDS011;7186;48.800;9.216;2023-02-14T00:20:19;28.57;;;15.97;;
14205;SDS011;7186;48.800;9.216;2023-02-14T00:22:45;29.47;;;15.00;;
14205;SDS011;7186;48.800;9.216;2023-02-14T00:25:10;28.60;;;15.07;;
14205;SDS011;7186;48.800;9.216;2023-02-14T00:27:35;34.33;;;16.13;;
14205;SDS011;7186;48.800;9.216;2023-02-14T00:30:01;32.57;;;15.63;;
14205;SDS011;7186;48.800;9.216;2023-02-14T00:32:30;33.87;;;16.70;;
14205;SDS011;7186;48.800;9.216;2023-02-14T00:34:55;26.87;;;15.90;;
14205;SDS011;7186;48.800;9.216;2023-02-14T00:37:21;28.80;;;15.53;;
14205;SDS011;7186;48.800;9.216;2023-02-14T00:39:46;30.63;;;15.60;;
14205;SDS011;7186;48.800;9.216;2023-02-14T00:42:12;30.10;;;14.93;;
14205;SDS011;7186;48.800;9.216;2023-02-14T00:44:38;30.57;;;15.73;;
14205;SDS011;7186;48.800;9.216;2023-02-14T00:47:03;32.60;;;16.57;;
14205;SDS011;7186;48.800;9.216;2023-02-14T00:49:28;34.30;;;15.93;;
14205;SDS011;7186;48.800;9.216;2023-02-14T00:51:54;32.33;;;16.47;;
14205;SDS011;7186;48.800;9.216;2023-02-14T00:54:19;33.57;;;17.53;;
14205;SDS011;7186;48.800;9.216;2023-02-14T00:56:44;37.20;;;17.23;;
14205;SDS011;7186;48.800;9.216;2023-02-14T00:59:10;31.60;;;16.80;;
14205;SDS011;7186;48.800;9.216;2023-02-14T01:01:35;31.30;;;16.80;;
14205;SDS011;7186;48.800;9.216;2023-02-14T01:04:00;30.20;;;15.53;;
14205;SDS011;7186;48.800;9.216;2023-02-14T01:06:26;33.30;;;16.37;;
14205;SDS011;7186;48.800;9.216;2023-02-14T01:08:51;30.37;;;16.77;;
14205;SDS011;7186;48.800;9.216;2023-02-14T01:11:20;36.20;;;17.73;;
14205;SDS011;7186;48.800;9.216;2023-02-14T01:13:46;34.90;;;16.67;;
14205;SDS011;7186;48.800;9.216;2023-02-14T01:16:13;31.33;;;17.17;;
14205;SDS011;7186;48.800;9.216;2023-02-14T01:18:39;34.93;;;17.07;;
14205;SDS011;7186;48.800;9.216;2023-02-14T01:21:11;33.97;;;17.47;;
14205;SDS011;7186;48.800;9.216;2023-02-14T01:23:37;34.47;;;16.83;;
14205;SDS011;7186;48.800;9.216;2023-02-14T01:26:03;34.97;;;17.53;;
14205;SDS011;7186;48.800;9.216;2023-02-14T01:28:28;34.23;;;16.70;;
14205;SDS011;7186;48.800;9.216;2023-02-14T01:30:54;32.33;;;17.30;;
14205;SDS011;7186;48.800;9.216;2023-02-14T01:33:19;33.80;;;17.90;;
14205;SDS011;7186;48.800;9.216;2023-02-14T01:35:44;35.87;;;17.50;;
14205;SDS011;7186;48.800;9.216;2023-02-14T01:38:10;32.97;;;16.53;;
14205;SDS011;7186;48.800;9.216;2023-02-14T01:40:40;38.23;;;17.03;;
14205;SDS011;7186;48.800;9.216;2023-02-14T01:43:07;31.20;;;16.40;;
14205;SDS011;7186;48.800;9.216;2023-02-14T01:45:33;40.83;;;18.03;;
14205;SDS011;7186;48.800;9.216;2023-02-14T01:47:58;38.07;;;17.87;;
14205;SDS011;7186;48.800;9.216;2023-02-14T01:50:25;36.67;;;17.53;;
14205;SDS011;7186;48.800;9.216;2023-02-14T01:52:54;34.37;;;18.43;;
14205;SDS011;7186;48.800;9.216;2023-02-14T01:55:22;36.33;;;16.60;;
14205;SDS011;7186;48.800;9.216;2023-02-14T01:57:49;37.27;;;18.20;;
14205;SDS011;7186;48.800;9.216;2023-02-14T02:00:16;33.70;;;18.20;;
14205;SDS011;7186;48.800;9.216;2023-02-14T02:03:00;40.37;;;17.57;;
14205;SDS011;7186;48.800;9.216;2023-02-14T02:05:27;33.53;;;16.67;;
14205;SDS011;7186;48.800;9.216;2023-02-14T02:07:54;40.07;;;17.67;;
14205;SDS011;7186;48.800;9.216;2023-02-14T02:10:21;32.83;;;17.30;;
14205;SDS011;7186;48.800;9.216;2023-02-14T02:12:47;35.90;;;18.03;;
14205;SDS011;7186;48.800;9.216;2023-02-14T02:15:13;36.23;;;17.67;;
14205;SDS011;7186;48.800;9.216;2023-02-14T02:39:02;38.00;;;17.90;;
14205;SDS011;7186;48.800;9.216;2023-02-14T02:41:37;34.87;;;17.87;;
14205;SDS011;7186;48.800;9.216;2023-02-14T02:46:35;36.67;;;18.43;;
14205;SDS011;7186;48.800;9.216;2023-02-14T02:52:17;33.43;;;17.13;;
14205;SDS011;7186;48.800;9.216;2023-02-14T02:55:05;33.37;;;16.50;;
14205;SDS011;7186;48.800;9.216;2023-02-14T02:57:33;34.70;;;18.50;;
14205;SDS011;7186;48.800;9.216;2023-02-14T02:59:59;34.83;;;17.47;;
14205;SDS011;7186;48.800;9.216;2023-02-14T03:02:46;39.67;;;18.90;;
14205;SDS011;7186;48.800;9.216;2023-02-14T03:05:30;44.60;;;19.90;;
14205;SDS011;7186;48.800;9.216;2023-02-14T03:07:58;37.17;;;18.67;;
14205;SDS011;7186;48.800;9.216;2023-02-14T03:10:24;36.20;;;18.47;;
14205;SDS011;7186;48.800;9.216;2023-02-14T03:15:50;32.53;;;17.30;;
14205;SDS011;7186;48.800;9.216;2023-02-14T03:24:02;35.13;;;17.23;;
14205;SDS011;7186;48.800;9.216;2023-02-14T03:31:31;37.50;;;17.47;;
14205;SDS011;7186;48.800;9.216;2023-02-14T03:36:30;34.83;;;17.47;;
14205;SDS011;7186;48.800;9.216;2023-02-14T03:39:04;30.50;;;16.53;;
14205;SDS011;7186;48.800;9.216;2023-02-14T03:41:32;34.93;;;16.37;;
14205;SDS011;7186;48.800;9.216;2023-02-14T03:44:01;39.23;;;17.17;;
14205;SDS011;7186;48.800;9.216;2023-02-14T03:46:33;34.50;;;17.03;;
14205;SDS011;7186;48.800;9.216;2023-02-14T03:49:00;36.80;;;18.00;;
14205;SDS011;7186;48.800;9.216;2023-02-14T03:51:36;37.17;;;16.80;;
14205;SDS011;7186;48.800;9.216;2023-02-14T03:54:03;33.67;;;17.67;;
14205;SDS011;7186;48.800;9.216;2023-02-14T03:56:34;34.07;;;17.77;;
14205;SDS011;7186;48.800;9.216;2023-02-14T03:59:06;36.33;;;17.83;;
14205;SDS011;7186;48.800;9.216;2023-02-14T04:01:34;33.13;;;17.10;;
14205;SDS011;7186;48.800;9.216;2023-02-14T04:04:01;35.73;;;17.33;;
14205;SDS011;7186;48.800;9.216;2023-02-14T04:06:28;36.00;;;17.67;;
14205;SDS011;7186;48.800;9.216;2023-02-14T04:08:53;33.63;;;17.30;;
14205;SDS011;7186;48.800;9.216;2023-02-14T04:11:34;33.23;;;16.30;;
14205;SDS011;7186;48.800;9.216;2023-02-14T04:14:02;39.67;;;17.10;;
14205;SDS011;7186;48.800;9.216;2023-02-14T04:16:28;39.67;;;17.53;;
14205;SDS011;7186;48.800;9.216;2023-02-14T04:18:53;34.17;;;16.97;;
14205;SDS011;7186;48.800;9.216;2023-02-14T04:21:37;40.40;;;18.03;;
14205;SDS011;7186;48.800;9.216;2023-02-14T04:24:02;36.77;;;17.70;;
14205;SDS011;7186;48.800;9.216;2023-02-14T04:26:28;39.23;;;18.00;;
14205;SDS011;7186;48.800;9.216;2023-02-14T04:28:53;36.87;;;18.37;;
14205;SDS011;7186;48.800;9.216;2023-02-14T04:31:18;34.93;;;18.97;;
14205;SDS011;7186;48.800;9.216;2023-02-14T04:33:44;38.20;;;17.77;;
14205;SDS011;7186;48.800;9.216;2023-02-14T04:36:12;37.57;;;18.83;;
14205;SDS011;7186;48.800;9.216;2023-02-14T04:38:37;33.90;;;17.50;;
14205;SDS011;7186;48.800;9.216;2023-02-14T04:41:02;33.83;;;18.20;;
14205;SDS011;7186;48.800;9.216;2023-02-14T04:43:28;41.50;;;18.93;;
14205;SDS011;7186;48.800;9.216;2023-02-14T04:45:53;32.57;;;17.30;;
14205;SDS011;7186;48.800;9.216;2023-02-14T04:48:19;37.17;;;19.33;;
14205;SDS011;7186;48.800;9.216;2023-02-14T04:50:44;37.83;;;17.97;;
14205;SDS011;7186;48.800;9.216;2023-02-14T04:53:14;39.40;;;19.03;;
14205;SDS011;7186;48.800;9.216;2023-02-14T04:55:43;35.73;;;18.07;;
14205;SDS011;7186;48.800;9.216;2023-02-14T04:58:09;35.70;;;17.67;;
14205;SDS011;7186;48.800;9.216;2023-02-14T05:00:34;39.30;;;17.23;;
14205;SDS011;7186;48.800;9.216;2023-02-14T05:03:00;31.53;;;15.93;;
14205;SDS011;7186;48.800;9.216;2023-02-14T05:05:25;33.80;;;17.30;;
14205;SDS011;7186;48.800;9.216;2023-02-14T05:07:51;33.57;;;16.37;;
14205;SDS011;7186;48.800;9.216;2023-02-14T05:10:16;34.50;;;16.33;;
14205;SDS011;7186;48.800;9.216;2023-02-14T05:12:41;30.23;;;15.60;;
14205;SDS011;7186;48.800;9.216;2023-02-14T05:15:06;38.10;;;17.37;;
14205;SDS011;7186;48.800;9.216;2023-02-14T05:17:32;30.63;;;16.60;;
14205;SDS011;7186;48.800;9.216;2023-02-14T05:19:57;36.50;;;17.13;;
14205;SDS011;7186;48.800;9.216;2023-02-14T05:22:23;34.10;;;16.30;;
14205;SDS011;7186;48.800;9.216;2023-02-14T05:24:48;28.40;;;14.77;;
14205;SDS011;7186;48.800;9.216;2023-02-14T05:27:13;32.27;;;17.50;;
14205;SDS011;7186;48.800;9.216;2023-02-14T05:29:39;35.30;;;16.80;;
14205;SDS011;7186;48.800;9.216;2023-02-14T05:32:04;33.07;;;16.90;;
14205;SDS011;7186;48.800;9.216;2023-02-14T05:34:50;34.30;;;16.87;;
14205;SDS011;7186;48.800;9.216;2023-02-14T05:37:15;33.63;;;16.93;;
14205;SDS011;7186;48.800;9.216;2023-02-14T05:39:40;34.63;;;17.83;;
14205;SDS011;7186;48.800;9.216;2023-02-14T05:42:06;31.03;;;16.80;;
14205;SDS011;7186;48.800;9.216;2023-02-14T05:44:31;37.50;;;18.13;;
14205;SDS011;7186;48.800;9.216;2023-02-14T05:46:56;31.90;;;16.47;;
14205;SDS011;7186;48.800;9.216;2023-02-14T05:49:22;33.77;;;16.10;;
14205;SDS011;7186;48.800;9.216;2023-02-14T05:51:50;35.63;;;16.77;;
14205;SDS011;7186;48.800;9.216;2023-02-14T05:54:21;37.23;;;15.97;;
14205;SDS011;7186;48.800;9.216;2023-02-14T05:56:47;33.63;;;18.27;;
14205;SDS011;7186;48.800;9.216;2023-02-14T05:59:12;33.00;;;16.80;;
14205;SDS011;7186;48.800;9.216;2023-02-14T06:01:38;32.07;;;17.07;;
14205;SDS011;7186;48.800;9.216;2023-02-14T06:04:03;35.00;;;16.10;;
14205;SDS011;7186;48.800;9.216;2023-02-14T06:06:29;32.00;;;17.47;;
14205;SDS011;7186;48.800;9.216;2023-02-14T06:08:54;33.77;;;17.07;;
14205;SDS011;7186;48.800;9.216;2023-02-14T06:11:19;34.43;;;17.83;;
14205;SDS011;7186;48.800;9.216;2023-02-14T06:13:45;30.97;;;16.67;;
14205;SDS011;7186;48.800;9.216;2023-02-14T06:16:11;36.87;;;17.10;;
14205;SDS011;7186;48.800;9.216;2023-02-14T06:18:36;33.27;;;18.03;;
14205;SDS011;7186;48.800;9.216;2023-02-14T06:21:02;36.37;;;17.30;;
14205;SDS011;7186;48.800;9.216;2023-02-14T06:23:27;34.37;;;17.17;;
14205;SDS011;7186;48.800;9.216;2023-02-14T06:25:53;36.80;;;17.80;;
14205;SDS011;7186;48.800;9.216;2023-02-14T06:28:18;35.87;;;17.53;;
14205;SDS011;7186;48.800;9.216;2023-02-14T06:30:44;33.53;;;17.83;;
14205;SDS011;7186;48.800;9.216;2023-02-14T06:33:10;30.70;;;17.13;;
14205;SDS011;7186;48.800;9.216;2023-02-14T06:35:35;39.77;;;19.27;;
14205;SDS011;7186;48.800;9.216;2023-02-14T06:38:00;37.27;;;17.50;;
14205;SDS011;7186;48.800;9.216;2023-02-14T06:40:34;33.33;;;17.70;;
14205;SDS011;7186;48.800;9.216;2023-02-14T06:43:00;33.17;;;18.23;;
14205;SDS011;7186;48.800;9.216;2023-02-14T06:45:25;34.00;;;17.30;;
14205;SDS011;7186;48.800;9.216;2023-02-14T06:47:50;33.43;;;17.07;;
14205;SDS011;7186;48.800;9.216;2023-02-14T06:50:16;37.43;;;16.50;;
14205;SDS011;7186;48.800;9.216;2023-02-14T06:52:41;34.77;;;17.17;;
14205;SDS011;7186;48.800;9.216;2023-02-14T06:55:08;34.20;;;18.47;;
14205;SDS011;7186;48.800;9.216;2023-02-14T06:57:35;33.97;;;15.70;;
14205;SDS011;7186;48.800;9.216;2023-02-14T07:00:01;34.20;;;17.80;;
14205;SDS011;7186;48.800;9.216;2023-02-14T07:02:26;33.30;;;16.60;;
14205;SDS011;7186;48.800;9.216;2023-02-14T07:04:54;36.90;;;17.70;;
14205;SDS011;7186;48.800;9.216;2023-02-14T07:07:20;49.00;;;17.87;;
14205;SDS011;7186;48.800;9.216;2023-02-14T07:09:45;37.77;;;18.70;;
14205;SDS011;7186;48.800;9.216;2023-02-14T07:12:10;40.87;;;18.50;;
14205;SDS011;7186;48.800;9.216;2023-02-14T07:14:36;41.63;;;18.27;;
14205;SDS011;7186;48.800;9.216;2023-02-14T07:17:01;35.03;;;17.83;;
14205;SDS011;7186;48.800;9.216;2023-02-14T07:19:27;37.97;;;17.20;;
14205;SDS011;7186;48.800;9.216;2023-02-14T07:21:52;32.90;;;16.13;;
14205;SDS011;7186;48.800;9.216;2023-02-14T07:24:18;36.53;;;16.63;;
14205;SDS011;7186;48.800;9.216;2023-02-14T07:26:43;34.43;;;16.50;;
14205;SDS011;7186;48.800;9.216;2023-02-14T07:29:08;35.37;;;17.33;;
14205;SDS011;7186;48.800;9.216;2023-02-14T07:31:34;35.73;;;16.67;;
14205;SDS011;7186;48.800;9.216;2023-02-14T07:33:59;37.53;;;18.13;;
14205;SDS011;7186;48.800;9.216;2023-02-14T07:36:25;33.47;;;17.23;;
14205;SDS011;7186;48.800;9.216;2023-02-14T07:38:50;36.00;;;17.27;;
14205;SDS011;7186;48.800;9.216;2023-02-14T07:41:15;35.77;;;16.67;;
14205;SDS011;7186;48.800;9.216;2023-02-14T07:43:41;34.37;;;17.93;;
14205;SDS011;7186;48.800;9.216;2023-02-14T07:46:06;33.83;;;17.47;;
14205;SDS011;7186;48.800;9.216;2023-02-14T07:48:32;34.70;;;17.40;;
14205;SDS011;7186;48.800;9.216;2023-02-14T07:50:58;33.77;;;18.30;;
14205;SDS011;7186;48.800;9.216;2023-02-14T07:53:23;34.27;;;17.60;;
14205;SDS011;7186;48.800;9.216;2023-02-14T07:55:49;32.27;;;17.80;;
14205;SDS011;7186;48.800;9.216;2023-02-14T07:58:15;31.00;;;16.90;;
14205;SDS011;7186;48.800;9.216;2023-02-14T08:00:40;33.53;;;16.37;;
14205;SDS011;7186;48.800;9.216;2023-02-14T08:03:05;42.23;;;17.53;;
14205;SDS011;7186;48.800;9.216;2023-02-14T08:05:31;29.67;;;16.50;;
14205;SDS011;7186;48.800;9.216;2023-02-14T08:07:58;36.43;;;17.63;;
14205;SDS011;7186;48.800;9.216;2023-02-14T08:10:24;34.03;;;17.50;;
14205;SDS011;7186;48.800;9.216;2023-02-14T08:12:52;34.60;;;17.77;;
14205;SDS011;7186;48.800;9.216;2023-02-14T08:15:23;40.63;;;18.93;;
14205;SDS011;7186;48.800;9.216;2023-02-14T08:18:07;30.43;;;17.07;;
14205;SDS011;7186;48.800;9.216;2023-02-14T08:20:32;31.63;;;17.73;;
14205;SDS011;7186;48.800;9.216;2023-02-14T08:22:58;31.17;;;17.23;;
14205;SDS011;7186;48.800;9.216;2023-02-14T08:25:23;35.40;;;18.03;;
14205;SDS011;7186;48.800;9.216;2023-02-14T08:27:48;38.47;;;18.03;;
14205;SDS011;7186;48.800;9.216;2023-02-14T08:30:14;35.80;;;17.17;;
14205;SDS011;7186;48.800;9.216;2023-02-14T08:32:39;34.17;;;18.37;;
14205;SDS011;7186;48.800;9.216;2023-02-14T08:35:05;32.20;;;17.20;;
14205;SDS011;7186;48.800;9.216;2023-02-14T08:37:30;35.57;;;18.10;;
14205;SDS011;7186;48.800;9.216;2023-02-14T08:39:56;32.13;;;16.57;;
14205;SDS011;7186;48.800;9.216;2023-02-14T08:42:21;29.37;;;16.53;;
14205;SDS011;7186;48.800;9.216;2023-02-14T08:44:46;33.03;;;17.47;;
14205;SDS011;7186;48.800;9.216;2023-02-14T08:47:12;30.53;;;16.47;;
14205;SDS011;7186;48.800;9.216;2023-02-14T08:49:37;33.53;;;17.33;;
14205;SDS011;7186;48.800;9.216;2023-02-14T08:52:02;29.07;;;16.00;;
14205;SDS011;7186;48.800;9.216;2023-02-14T08:54:27;30.53;;;16.23;;
14205;SDS011;7186;48.800;9.216;2023-02-14T08:56:53;31.53;;;17.87;;
14205;SDS011;7186;48.800;9.216;2023-02-14T08:59:18;31.60;;;19.20;;
14205;SDS011;7186;48.800;9.216;2023-02-14T09:01:43;34.07;;;19.27;;
14205;SDS011;7186;48.800;9.216;2023-02-14T09:04:08;37.07;;;18.97;;
14205;SDS011;7186;48.800;9.216;2023-02-14T09:06:36;34.80;;;18.00;;
14205;SDS011;7186;48.800;9.216;2023-02-14T09:09:01;31.63;;;17.90;;
14205;SDS011;7186;48.800;9.216;2023-02-14T09:11:26;28.97;;;16.50;;
14205;SDS011;7186;48.800;9.216;2023-02-14T09:13:51;29.40;;;15.43;;
14205;SDS011;7186;48.800;9.216;2023-02-14T09:16:19;33.47;;;15.93;;
14205;SDS011;7186;48.800;9.216;2023-02-14T09:18:45;28.40;;;15.53;;
14205;SDS011;7186;48.800;9.216;2023-02-14T09:21:12;28.13;;;15.40;;
14205;SDS011;7186;48.800;9.216;2023-02-14T09:23:37;27.77;;;15.13;;
14205;SDS011;7186;48.800;9.216;2023-02-14T09:26:04;26.40;;;15.37;;
14205;SDS011;7186;48.800;9.216;2023-02-14T09:28:30;25.37;;;15.67;;
14205;SDS011;7186;48.800;9.216;2023-02-14T09:30:55;26.83;;;16.33;;
14205;SDS011;7186;48.800;9.216;2023-02-14T09:33:21;28.83;;;16.43;;
14205;SDS011;7186;48.800;9.216;2023-02-14T09:35:47;27.23;;;16.00;;
14205;SDS011;7186;48.800;9.216;2023-02-14T09:38:12;30.73;;;15.83;;
14205;SDS011;7186;48.800;9.216;2023-02-14T09:40:42;31.30;;;16.47;;
14205;SDS011;7186;48.800;9.216;2023-02-14T09:45:35;28.13;;;16.83;;
14205;SDS011;7186;48.800;9.216;2023-02-14T09:50:45;32.43;;;17.13;;
14205;SDS011;7186;48.800;9.216;2023-02-14T09:53:14;29.70;;;16.80;;
14205;SDS011;7186;48.800;9.216;2023-02-14T09:55:45;27.03;;;16.00;;
14205;SDS011;7186;48.800;9.216;2023-02-14T09:58:15;25.20;;;15.33;;
14205;SDS011;7186;48.800;9.216;2023-02-14T10:00:55;26.97;;;15.80;;
14205;SDS011;7186;48.800;9.216;2023-02-14T10:03:31;24.20;;;14.23;;
14205;SDS011;7186;48.800;9.216;2023-02-14T10:06:00;25.50;;;15.20;;
14205;SDS011;7186;48.800;9.216;2023-02-14T10:09:10;21.47;;;13.97;;
14205;SDS011;7186;48.800;9.216;2023-02-14T10:11:16;23.50;;;14.40;;
14205;SDS011;7186;48.800;9.216;2023-02-14T10:13:52;22.83;;;13.70;;
14205;SDS011;7186;48.800;9.216;2023-02-14T10:16:26;23.30;;;15.17;;
14205;SDS011;7186;48.800;9.216;2023-02-14T10:18:56;22.47;;;14.17;;
14205;SDS011;7186;48.800;9.216;2023-02-14T10:21:23;20.80;;;14.13;;
14205;SDS011;7186;48.800;9.216;2023-02-14T10:23:50;22.80;;;14.87;;
14205;SDS011;7186;48.800;9.216;2023-02-14T10:26:25;34.00;;;14.87;;
14205;SDS011;7186;48.800;9.216;2023-02-14T10:28:51;21.63;;;15.00;;
14205;SDS011;7186;48.800;9.216;2023-02-14T10:31:38;21.23;;;15.03;;
14205;SDS011;7186;48.800;9.216;2023-02-14T10:34:12;24.40;;;14.87;;
14205;SDS011;7186;48.800;9.216;2023-02-14T10:42:28;20.27;;;14.17;;
14205;SDS011;7186;48.800;9.216;2023-02-14T10:44:52;19.87;;;14.97;;
14205;SDS011;7186;48.800;9.216;2023-02-14T10:58:02;20.23;;;14.73;;
14205;SDS011;7186;48.800;9.216;2023-02-14T11:00:30;22.73;;;14.67;;
14205;SDS011;7186;48.800;9.216;2023-02-14T11:02:57;19.60;;;14.07;;
14205;SDS011;7186;48.800;9.216;2023-02-14T11:05:25;24.30;;;14.97;;
14205;SDS011;7186;48.800;9.216;2023-02-14T11:07:51;20.30;;;14.13;;
14205;SDS011;7186;48.800;9.216;2023-02-14T11:10:17;19.77;;;14.17;;
14205;SDS011;7186;48.800;9.216;2023-02-14T11:12:44;19.67;;;14.77;;
14205;SDS011;7186;48.800;9.216;2023-02-14T11:15:22;24.30;;;15.90;;
14205;SDS011;7186;48.800;9.216;2023-02-14T11:17:48;19.90;;;14.40;;
14205;SDS011;7186;48.800;9.216;2023-02-14T11:20:27;19.33;;;13.57;;
14205;SDS011;7186;48.800;9.216;2023-02-14T11:22:54;21.73;;;14.33;;
14205;SDS011;7186;48.800;9.216;2023-02-14T11:25:22;18.30;;;14.17;;
14205;SDS011;7186;48.800;9.216;2023-02-14T11:27:53;15.93;;;13.33;;
14205;SDS011;7186;48.800;9.216;2023-02-14T11:30:35;17.83;;;13.40;;
14205;SDS011;7186;48.800;9.216;2023-02-14T11:33:01;17.50;;;13.73;;
14205;SDS011;7186;48.800;9.216;2023-02-14T11:35:28;19.60;;;13.70;;
14205;SDS011;7186;48.800;9.216;2023-02-14T11:37:59;19.43;;;13.67;;
14205;SDS011;7186;48.800;9.216;2023-02-14T11:40:32;20.07;;;15.03;;
14205;SDS011;7186;48.800;9.216;2023-02-14T11:42:59;24.43;;;15.70;;
14205;SDS011;7186;48.800;9.216;2023-02-14T11:47:50;18.43;;;13.83;;
14205;SDS011;7186;48.800;9.216;2023-02-14T11:50:30;19.10;;;13.80;;
14205;SDS011;7186;48.800;9.216;2023-02-14T11:52:55;20.83;;;13.60;;
14205;SDS011;7186;48.800;9.216;2023-02-14T11:55:31;17.37;;;13.03;;
14205;SDS011;7186;48.800;9.216;2023-02-14T11:57:57;19.93;;;15.07;;
14205;SDS011;7186;48.800;9.216;2023-02-14T12:00:24;19.00;;;14.23;;
14205;SDS011;7186;48.800;9.216;2023-02-14T12:02:50;16.80;;;14.00;;
14205;SDS011;7186;48.800;9.216;2023-02-14T12:05:30;20.00;;;14.20;;
14205;SDS011;7186;48.800;9.216;2023-02-14T12:07:56;18.83;;;13.57;;
14205;SDS011;7186;48.800;9.216;2023-02-14T12:10:26;18.87;;;14.87;;
14205;SDS011;7186;48.800;9.216;2023-02-14T12:12:59;18.10;;;14.70;;
14205;SDS011;7186;48.800;9.216;2023-02-14T12:17:52;23.07;;;15.50;;
14205;SDS011;7186;48.800;9.216;2023-02-14T12:20:27;23.90;;;15.40;;
14205;SDS011;7186;48.800;9.216;2023-02-14T12:23:00;19.67;;;15.57;;
14205;SDS011;7186;48.800;9.216;2023-02-14T12:25:30;26.43;;;16.20;;
14205;SDS011;7186;48.800;9.216;2023-02-14T12:28:02;25.00;;;15.97;;
14205;SDS011;7186;48.800;9.216;2023-02-14T12:30:31;23.73;;;15.33;;
14205;SDS011;7186;48.800;9.216;2023-02-14T12:32:56;24.50;;;15.93;;
14205;SDS011;7186;48.800;9.216;2023-02-14T12:38:16;20.60;;;15.07;;
14205;SDS011;7186;48.800;9.216;2023-02-14T12:51:24;21.20;;;15.13;;
14205;SDS011;7186;48.800;9.216;2023-02-14T13:02:03;24.27;;;16.23;;
14205;SDS011;7186;48.800;9.216;2023-02-14T13:07:51;21.10;;;14.87;;
14205;SDS011;7186;48.800;9.216;2023-02-14T13:12:36;27.43;;;16.17;;
14205;SDS011;7186;48.800;9.216;2023-02-14T13:17:47;25.93;;;16.17;;
14205;SDS011;7186;48.800;9.216;2023-02-14T13:20:32;23.13;;;16.43;;
14205;SDS011;7186;48.800;9.216;2023-02-14T13:23:02;23.93;;;15.80;;
14205;SDS011;7186;48.800;9.216;2023-02-14T13:25:29;22.93;;;16.00;;
14205;SDS011;7186;48.800;9.216;2023-02-14T13:28:01;22.03;;;15.03;;
14205;SDS011;7186;48.800;9.216;2023-02-14T13:30:29;24.33;;;15.53;;
14205;SDS011;7186;48.800;9.216;2023-02-14T13:32:56;23.80;;;15.90;;
14205;SDS011;7186;48.800;9.216;2023-02-14T13:35:22;23.80;;;15.50;;
14205;SDS011;7186;48.800;9.216;2023-02-14T13:37:55;23.50;;;14.80;;
14205;SDS011;7186;48.800;9.216;2023-02-14T13:40:21;23.87;;;16.00;;
14205;SDS011;7186;48.800;9.216;2023-02-14T13:50:33;26.27;;;16.60;;
14205;SDS011;7186;48.800;9.216;2023-02-14T13:53:01;27.17;;;15.87;;
14205;SDS011;7186;48.800;9.216;2023-02-14T13:55:27;26.43;;;16.67;;
14205;SDS011;7186;48.800;9.216;2023-02-14T13:58:00;24.10;;;15.37;;
14205;SDS011;7186;48.800;9.216;2023-02-14T14:00:45;25.03;;;15.47;;
14205;SDS011;7186;48.800;9.216;2023-02-14T14:03:14;26.80;;;16.37;;
14205;SDS011;7186;48.800;9.216;2023-02-14T14:06:06;26.03;;;15.87;;
14205;SDS011;7186;48.800;9.216;2023-02-14T14:08:35;27.53;;;15.67;;
14205;SDS011;7186;48.800;9.216;2023-02-14T14:14:00;23.07;;;15.30;;
14205;SDS011;7186;48.800;9.216;2023-02-14T14:16:33;22.17;;;14.90;;
14205;SDS011;7186;48.800;9.216;2023-02-14T14:21:33;25.90;;;15.50;;
14205;SDS011;7186;48.800;9.216;2023-02-14T14:26:46;26.73;;;14.97;;
14205;SDS011;7186;48.800;9.216;2023-02-14T14:31:40;29.77;;;15.67;;
14205;SDS011;7186;48.800;9.216;2023-02-14T14:34:13;24.67;;;16.03;;
14205;SDS011;7186;48.800;9.216;2023-02-14T14:36:39;22.40;;;14.83;;
14205;SDS011;7186;48.800;9.216;2023-02-14T14:39:04;24.77;;;16.27;;
14205;SDS011;7186;48.800;9.216;2023-02-14T14:41:29;28.47;;;16.57;;
14205;SDS011;7186;48.800;9.216;2023-02-14T14:43:57;26.17;;;15.20;;
14205;SDS011;7186;48.800;9.216;2023-02-14T14:46:22;23.07;;;14.73;;
14205;SDS011;7186;48.800;9.216;2023-02-14T14:48:49;25.23;;;16.17;;
14205;SDS011;7186;48.800;9.216;2023-02-14T14:53:47;30.33;;;15.13;;
14205;SDS011;7186;48.800;9.216;2023-02-14T14:56:24;31.33;;;15.60;;
14205;SDS011;7186;48.800;9.216;2023-02-14T14:58:51;25.87;;;15.33;;
14205;SDS011;7186;48.800;9.216;2023-02-14T15:01:35;27.83;;;16.17;;
14205;SDS011;7186;48.800;9.216;2023-02-14T15:09:39;28.40;;;16.63;;
14205;SDS011;7186;48.800;9.216;2023-02-14T15:12:04;26.77;;;15.60;;
14205;SDS011;7186;48.800;9.216;2023-02-14T15:14:49;27.10;;;16.70;;
14205;SDS011;7186;48.800;9.216;2023-02-14T15:17:28;27.87;;;16.93;;
14205;SDS011;7186;48.800;9.216;2023-02-14T15:19:59;24.60;;;15.63;;
14205;SDS011;7186;48.800;9.216;2023-02-14T15:22:27;29.53;;;16.17;;
14205;SDS011;7186;48.800;9.216;2023-02-14T15:24:56;25.57;;;17.17;;
14205;SDS011;7186;48.800;9.216;2023-02-14T15:27:22;25.87;;;16.70;;
14205;SDS011;7186;48.800;9.216;2023-02-14T15:30:07;25.67;;;16.73;;
14205;SDS011;7186;48.800;9.216;2023-02-14T15:32:34;24.17;;;16.03;;
14205;SDS011;7186;48.800;9.216;2023-02-14T15:35:00;28.50;;;17.07;;
14205;SDS011;7186;48.800;9.216;2023-02-14T15:37:27;27.17;;;16.87;;
14205;SDS011;7186;48.800;9.216;2023-02-14T15:39:53;28.03;;;15.77;;
14205;SDS011;7186;48.800;9.216;2023-02-14T15:42:32;26.90;;;17.33;;
14205;SDS011;7186;48.800;9.216;2023-02-14T15:47:42;24.03;;;15.13;;
14205;SDS011;7186;48.800;9.216;2023-02-14T15:50:18;22.07;;;15.17;;
14205;SDS011;7186;48.800;9.216;2023-02-14T15:52:44;27.37;;;16.53;;
14205;SDS011;7186;48.800;9.216;2023-02-14T15:55:10;23.60;;;15.23;;
14205;SDS011;7186;48.800;9.216;2023-02-14T15:57:39;25.20;;;16.03;;
14205;SDS011;7186;48.800;9.216;2023-02-14T16:00:14;23.63;;;16.27;;
14205;SDS011;7186;48.800;9.216;2023-02-14T16:02:40;25.90;;;15.37;;
14205;SDS011;7186;48.800;9.216;2023-02-14T16:05:14;26.43;;;16.40;;
14205;SDS011;7186;48.800;9.216;2023-02-14T16:07:40;25.27;;;15.67;;
14205;SDS011;7186;48.800;9.216;2023-02-14T16:10:21;23.50;;;15.77;;
14205;SDS011;7186;48.800;9.216;2023-02-14T16:12:54;23.93;;;15.30;;
14205;SDS011;7186;48.800;9.216;2023-02-14T16:15:20;27.67;;;15.23;;
14205;SDS011;7186;48.800;9.216;2023-02-14T16:17:47;26.80;;;15.00;;
14205;SDS011;7186;48.800;9.216;2023-02-14T16:20:20;23.77;;;15.30;;
14205;SDS011;7186;48.800;9.216;2023-02-14T16:22:46;27.53;;;15.33;;
14205;SDS011;7186;48.800;9.216;2023-02-14T16:25:12;26.13;;;16.80;;
14205;SDS011;7186;48.800;9.216;2023-02-14T16:27:38;24.40;;;16.07;;
14205;SDS011;7186;48.800;9.216;2023-02-14T16:30:04;27.80;;;16.43;;
14205;SDS011;7186;48.800;9.216;2023-02-14T16:32:29;26.00;;;16.43;;
14205;SDS011;7186;48.800;9.216;2023-02-14T16:34:54;24.30;;;15.87;;
14205;SDS011;7186;48.800;9.216;2023-02-14T16:37:21;32.07;;;16.97;;
14205;SDS011;7186;48.800;9.216;2023-02-14T16:39:47;27.43;;;16.17;;
14205;SDS011;7186;48.800;9.216;2023-02-14T16:42:15;28.03;;;17.33;;
14205;SDS011;7186;48.800;9.216;2023-02-14T16:44:41;23.17;;;16.27;;
14205;SDS011;7186;48.800;9.216;2023-02-14T16:47:12;27.00;;;16.63;;